createdAt,value
2019-05-11T00:00:40.116Z,14.00
2019-05-11T00:01:40.237Z,15.00
2019-05-11T00:02:39.946Z,15.20
2019-05-11T00:03:40.045Z,15.20
2019-05-11T00:04:39.795Z,15.00
2019-05-11T00:05:39.859Z,14.40
2019-05-11T00:06:39.617Z,15.00
2019-05-11T00:07:39.525Z,15.40
2019-05-11T00:08:39.470Z,15.40
2019-05-11T00:09:39.378Z,15.70
2019-05-11T00:10:39.309Z,15.40
2019-05-11T00:11:39.299Z,15.60
2019-05-11T00:12:39.124Z,16.50
2019-05-11T00:13:39.031Z,15.50
2019-05-11T00:14:39.145Z,15.60
2019-05-11T00:15:38.857Z,13.90
2019-05-11T00:16:38.904Z,16.00
2019-05-11T00:17:38.699Z,16.50
2019-05-11T00:18:38.616Z,16.30
2019-05-11T00:19:38.759Z,15.90
2019-05-11T00:20:38.456Z,16.00
2019-05-11T00:21:38.365Z,15.90
2019-05-11T00:22:38.354Z,15.60
2019-05-11T00:23:38.198Z,15.50
2019-05-11T00:24:38.175Z,15.70
2019-05-11T00:25:38.032Z,15.30
2019-05-11T00:26:38.153Z,15.00
2019-05-11T00:27:37.866Z,15.20
2019-05-11T00:28:37.961Z,16.10
2019-05-11T00:29:37.716Z,15.90
2019-05-11T00:30:37.765Z,16.60
2019-05-11T00:31:37.530Z,16.10
2019-05-11T00:32:37.577Z,15.70
2019-05-11T00:33:37.375Z,16.00
2019-05-11T00:34:37.428Z,15.70
2019-05-11T00:35:37.195Z,16.30
2019-05-11T00:36:37.195Z,16.50
2019-05-11T00:37:37.036Z,16.10
2019-05-11T00:38:36.958Z,16.20
2019-05-11T00:39:37.058Z,16.80
2019-05-11T00:40:36.787Z,16.90
2019-05-11T00:41:36.708Z,16.40
2019-05-11T00:42:36.818Z,15.60
2019-05-11T00:43:36.533Z,16.40
2019-05-11T00:44:36.674Z,16.90
2019-05-11T00:45:36.369Z,16.50
2019-05-11T00:46:36.644Z,17.20
2019-05-11T00:47:36.210Z,16.40
2019-05-11T00:48:36.115Z,17.20
2019-05-11T00:49:36.098Z,16.60
2019-05-11T00:50:39.186Z,17.10
2019-05-11T00:51:35.863Z,17.90
2019-05-11T00:52:35.866Z,17.00
2019-05-11T00:53:35.707Z,16.20
2019-05-11T00:54:35.642Z,16.70
2019-05-11T00:55:35.679Z,16.70
2019-05-11T00:56:35.451Z,16.60
2019-05-11T00:57:35.378Z,16.40
2019-05-11T00:58:35.493Z,16.30
2019-05-11T00:59:35.200Z,15.90
2019-05-11T01:00:35.135Z,15.80
2019-05-11T01:01:35.106Z,16.60
2019-05-11T01:02:34.957Z,15.80
2019-05-11T01:03:34.870Z,15.70
2019-05-11T01:04:34.920Z,15.20
2019-05-11T01:05:34.729Z,14.80
2019-05-11T01:06:34.642Z,15.10
2019-05-11T01:07:34.761Z,14.70
2019-05-11T01:08:34.453Z,14.90
2019-05-11T01:09:34.391Z,15.10
2019-05-11T01:10:41.988Z,14.70
2019-05-11T01:11:34.208Z,14.70
2019-05-11T01:12:34.114Z,14.90
2019-05-11T01:13:34.161Z,14.20
2019-05-11T01:14:33.965Z,14.10
2019-05-11T01:15:33.892Z,15.10
2019-05-11T01:16:33.977Z,15.10
2019-05-11T01:17:33.698Z,15.00
2019-05-11T01:18:33.619Z,15.40
2019-05-11T01:19:33.586Z,14.60
2019-05-11T01:20:33.473Z,14.80
2019-05-11T01:21:33.398Z,15.00
2019-05-11T01:22:33.353Z,14.90
2019-05-11T01:23:33.200Z,14.80
2019-05-11T01:24:33.210Z,14.50
2019-05-11T01:25:33.051Z,14.80
2019-05-11T01:26:32.955Z,14.80
2019-05-11T01:27:33.022Z,14.30
2019-05-11T01:28:32.785Z,15.10
2019-05-11T01:29:32.703Z,15.60
2019-05-11T01:30:32.693Z,15.20
2019-05-11T01:31:32.539Z,15.20
2019-05-11T01:32:32.454Z,15.50
2019-05-11T01:33:32.454Z,14.80
2019-05-11T01:34:32.289Z,15.80
2019-05-11T01:35:32.217Z,15.30
2019-05-11T01:36:32.269Z,16.10
2019-05-11T01:37:32.031Z,15.90
2019-05-11T01:38:31.962Z,15.90
2019-05-11T01:39:32.084Z,15.60
2019-05-11T01:40:31.799Z,16.00
2019-05-11T01:41:31.885Z,15.30
2019-05-11T01:42:31.613Z,15.30
2019-05-11T01:43:31.535Z,15.70
2019-05-11T01:44:31.500Z,15.60
2019-05-11T01:45:31.385Z,15.80
2019-05-11T01:46:31.288Z,15.80
2019-05-11T01:47:31.316Z,15.90
2019-05-11T01:48:31.119Z,16.00
2019-05-11T01:49:31.131Z,16.20
2019-05-11T01:50:30.964Z,16.90
2019-05-11T01:51:30.928Z,16.50
2019-05-11T01:52:30.787Z,17.00
2019-05-11T01:53:30.697Z,16.50
2019-05-11T01:54:30.752Z,16.40
2019-05-11T01:55:30.548Z,16.40
2019-05-11T01:56:30.435Z,16.60
2019-05-11T01:57:30.546Z,16.70
2019-05-11T01:58:30.264Z,17.00
2019-05-11T01:59:30.177Z,17.10
2019-05-11T02:00:30.217Z,17.50
2019-05-11T02:01:30.046Z,17.90
2019-05-11T02:02:29.935Z,17.40
2019-05-11T02:03:29.973Z,17.60
2019-05-11T02:04:29.850Z,17.40
2019-05-11T02:05:29.818Z,17.80
2019-05-11T02:06:29.602Z,17.30
2019-05-11T02:07:29.610Z,17.90
2019-05-11T02:08:29.437Z,17.20
2019-05-11T02:09:29.344Z,17.20
2019-05-11T02:10:29.463Z,17.60
2019-05-11T02:11:29.182Z,17.00
2019-05-11T02:12:29.095Z,17.30
2019-05-11T02:13:29.221Z,16.90
2019-05-11T02:14:28.926Z,16.90
2019-05-11T02:15:28.857Z,16.70
2019-05-11T02:16:28.834Z,17.30
2019-05-11T02:17:28.678Z,16.20
2019-05-11T02:18:28.599Z,16.80
2019-05-11T02:19:28.672Z,16.90
2019-05-11T02:20:28.443Z,16.00
2019-05-11T02:21:28.346Z,16.10
2019-05-11T02:22:28.459Z,16.80
2019-05-11T02:23:28.184Z,16.90
2019-05-11T02:24:28.093Z,16.40
2019-05-11T02:25:28.099Z,16.00
2019-05-11T02:26:27.928Z,15.40
2019-05-11T02:27:27.842Z,16.70
2019-05-11T02:28:30.760Z,17.00
2019-05-11T02:29:27.675Z,16.90
2019-05-11T02:30:27.596Z,16.50
2019-05-11T02:31:27.734Z,17.70
2019-05-11T02:32:27.421Z,16.60
2019-05-11T02:33:27.520Z,17.40
2019-05-11T02:34:27.255Z,18.10
2019-05-11T02:35:27.328Z,16.90
2019-05-11T02:36:27.112Z,18.20
2019-05-11T02:37:27.127Z,18.20
2019-05-11T02:38:26.923Z,19.30
2019-05-11T02:39:26.840Z,18.30
2019-05-11T02:40:26.950Z,18.20
2019-05-11T02:41:36.095Z,20.50
2019-05-11T02:42:26.598Z,20.80
2019-05-11T02:43:26.553Z,19.60
2019-05-11T02:44:26.442Z,19.70
2019-05-11T02:45:26.361Z,19.30
2019-05-11T02:46:26.303Z,19.20
2019-05-11T02:47:26.374Z,18.90
2019-05-11T02:48:26.087Z,19.90
2019-05-11T02:49:28.184Z,19.10
2019-05-11T02:50:25.937Z,18.80
2019-05-11T02:51:26.025Z,19.40
2019-05-11T02:52:25.761Z,19.60
2019-05-11T02:53:25.800Z,19.10
2019-05-11T02:54:25.596Z,19.70
2019-05-11T02:55:25.504Z,18.70
2019-05-11T02:56:25.643Z,19.40
2019-05-11T02:57:25.353Z,19.40
2019-05-11T02:58:25.377Z,20.10
2019-05-11T02:59:29.489Z,20.20
2019-05-11T03:00:25.086Z,20.00
2019-05-11T03:01:25.018Z,20.00
2019-05-11T03:02:25.039Z,20.90
2019-05-11T03:03:24.837Z,20.10
2019-05-11T03:04:24.756Z,21.10
2019-05-11T03:05:24.855Z,20.50
2019-05-11T03:06:24.598Z,20.50
2019-05-11T03:07:24.503Z,20.90
2019-05-11T03:08:24.469Z,19.40
2019-05-11T03:09:24.335Z,19.60
2019-05-11T03:10:24.291Z,19.70
2019-05-11T03:11:24.181Z,19.70
2019-05-11T03:12:24.287Z,20.20
2019-05-11T03:13:24.002Z,19.60
2019-05-11T03:14:24.096Z,19.00
2019-05-11T03:15:23.863Z,20.00
2019-05-11T03:16:23.949Z,19.30
2019-05-11T03:17:23.668Z,20.20
2019-05-11T03:18:23.718Z,20.10
2019-05-11T03:19:23.500Z,19.20
2019-05-11T03:20:23.525Z,20.50
2019-05-11T03:21:23.395Z,20.10
2019-05-11T03:22:23.327Z,20.90
2019-05-11T03:23:23.196Z,20.00
2019-05-11T03:24:24.157Z,21.00
2019-05-11T03:25:23.142Z,21.10
2019-05-11T03:26:22.929Z,19.70
2019-05-11T03:27:22.833Z,20.60
2019-05-11T03:28:22.958Z,21.30
2019-05-11T03:29:22.668Z,20.40
2019-05-11T03:30:22.765Z,21.10
2019-05-11T03:31:22.518Z,22.70
2019-05-11T03:32:22.587Z,21.90
2019-05-11T03:33:22.338Z,22.10
2019-05-11T03:34:22.555Z,22.90
2019-05-11T03:35:22.189Z,23.30
2019-05-11T03:36:22.226Z,22.90
2019-05-11T03:37:22.023Z,23.20
2019-05-11T03:38:21.999Z,22.80
2019-05-11T03:39:21.834Z,23.40
2019-05-11T03:40:21.761Z,23.40
2019-05-11T03:41:21.850Z,23.60
2019-05-11T03:42:21.579Z,24.00
2019-05-11T03:43:21.504Z,23.70
2019-05-11T03:44:21.630Z,23.70
2019-05-11T03:45:21.333Z,24.70
2019-05-11T03:46:21.490Z,23.10
2019-05-11T03:47:21.162Z,23.80
2019-05-11T03:48:21.246Z,24.50
2019-05-11T03:49:20.998Z,23.90
2019-05-11T03:50:20.915Z,25.10
2019-05-11T03:51:20.889Z,25.70
2019-05-11T03:52:20.747Z,25.20
2019-05-11T03:53:20.660Z,24.70
2019-05-11T03:54:20.671Z,26.10
2019-05-11T03:55:20.491Z,25.80
2019-05-11T03:56:20.522Z,25.80
2019-05-11T03:57:20.331Z,25.00
2019-05-11T03:58:25.175Z,25.70
2019-05-11T03:59:20.166Z,25.80
2019-05-11T04:00:20.076Z,25.10
2019-05-11T04:01:20.104Z,25.30
2019-05-11T04:02:19.979Z,26.50
2019-05-11T04:03:19.825Z,26.10
2019-05-11T04:04:19.950Z,26.70
2019-05-11T04:05:19.670Z,26.00
2019-05-11T04:06:19.727Z,25.70
2019-05-11T04:07:19.508Z,26.40
2019-05-11T04:08:19.533Z,25.50
2019-05-11T04:09:19.326Z,25.80
2019-05-11T04:10:19.242Z,26.00
2019-05-11T04:11:19.349Z,25.20
2019-05-11T04:12:34.138Z,25.10
2019-05-11T04:13:18.990Z,25.70
2019-05-11T04:14:18.962Z,26.20
2019-05-11T04:15:18.828Z,26.70
2019-05-11T04:16:18.747Z,25.50
2019-05-11T04:17:18.804Z,25.70
2019-05-11T04:18:18.573Z,25.60
2019-05-11T04:19:18.491Z,25.30
2019-05-11T04:20:18.605Z,25.40
2019-05-11T04:21:18.319Z,25.90
2019-05-11T04:22:18.442Z,27.10
2019-05-11T04:23:18.143Z,26.60
2019-05-11T04:24:18.210Z,26.70
2019-05-11T04:25:17.984Z,27.10
2019-05-11T04:26:18.020Z,27.80
2019-05-11T04:27:19.692Z,27.70
2019-05-11T04:28:17.831Z,28.20
2019-05-11T04:29:17.658Z,29.30
2019-05-11T04:30:17.633Z,30.60
2019-05-11T04:31:17.488Z,30.20
2019-05-11T04:32:17.477Z,30.60
2019-05-11T04:33:17.318Z,32.20
2019-05-11T04:34:17.233Z,33.10
2019-05-11T04:35:17.266Z,34.00
2019-05-11T04:36:17.066Z,33.60
2019-05-11T04:37:16.997Z,33.90
2019-05-11T04:38:17.076Z,33.90
2019-05-11T04:39:16.814Z,32.90
2019-05-11T04:40:16.736Z,33.50
2019-05-11T04:41:16.789Z,32.90
2019-05-11T04:42:16.577Z,32.90
2019-05-11T04:43:16.593Z,32.50
2019-05-11T04:44:16.397Z,32.90
2019-05-11T04:45:16.348Z,32.20
2019-05-11T04:46:16.409Z,31.60
2019-05-11T04:47:16.153Z,31.00
2019-05-11T04:48:16.059Z,31.00
2019-05-11T04:49:16.027Z,31.30
2019-05-11T04:50:15.914Z,31.20
2019-05-11T04:51:15.847Z,30.90
2019-05-11T04:52:15.748Z,32.20
2019-05-11T04:53:15.841Z,32.30
2019-05-11T04:54:15.563Z,31.90
2019-05-11T04:55:15.646Z,32.20
2019-05-11T04:56:15.402Z,32.00
2019-05-11T04:57:15.490Z,32.10
2019-05-11T04:58:15.223Z,32.30
2019-05-11T04:59:15.144Z,31.20
2019-05-11T05:00:15.070Z,31.70
2019-05-11T05:01:14.979Z,31.00
2019-05-11T05:02:14.903Z,30.90
2019-05-11T05:03:14.811Z,31.20
2019-05-11T05:04:14.746Z,30.80
2019-05-11T05:05:14.637Z,30.00
2019-05-11T05:06:24.144Z,29.80
2019-05-11T05:07:16.565Z,29.20
2019-05-11T05:08:14.401Z,29.80
2019-05-11T05:09:14.353Z,30.50
2019-05-11T05:10:19.597Z,29.20
2019-05-11T05:11:14.161Z,29.50
2019-05-11T05:12:15.653Z,29.10
2019-05-11T05:13:13.978Z,27.60
2019-05-11T05:14:13.894Z,29.10
2019-05-11T05:15:13.803Z,28.00
2019-05-11T05:16:13.723Z,26.40
2019-05-11T05:17:13.678Z,27.20
2019-05-11T05:18:13.556Z,25.00
2019-05-11T05:19:13.470Z,25.30
2019-05-11T05:20:13.401Z,25.00
2019-05-11T05:21:13.309Z,25.30
2019-05-11T05:22:13.226Z,25.70
2019-05-11T05:23:13.165Z,25.30
2019-05-11T05:24:13.062Z,24.70
2019-05-11T05:25:12.973Z,23.70
2019-05-11T05:26:12.893Z,23.90
2019-05-11T05:27:12.803Z,24.10
2019-05-11T05:28:12.734Z,22.70
2019-05-11T05:29:12.647Z,20.90
2019-05-11T05:30:12.556Z,20.80
2019-05-11T05:31:12.468Z,20.90
2019-05-11T05:32:12.398Z,20.80
2019-05-11T05:33:12.319Z,19.30
2019-05-11T05:34:12.225Z,19.10
2019-05-11T05:35:12.136Z,19.00
2019-05-11T05:36:12.065Z,19.40
2019-05-11T05:37:11.967Z,19.40
2019-05-11T05:38:11.901Z,19.30
2019-05-11T05:39:11.801Z,19.10
2019-05-11T05:40:11.726Z,16.70
2019-05-11T05:41:11.654Z,17.90
2019-05-11T05:42:11.553Z,18.40
2019-05-11T05:43:25.539Z,18.70
2019-05-11T05:44:11.385Z,18.70
2019-05-11T05:45:11.299Z,18.20
2019-05-11T05:46:11.230Z,17.80
2019-05-11T05:47:11.140Z,18.10
2019-05-11T05:48:11.084Z,18.40
2019-05-11T05:49:10.979Z,18.20
2019-05-11T05:50:10.895Z,18.90
2019-05-11T05:51:10.800Z,18.70
2019-05-11T05:52:10.724Z,19.60
2019-05-11T05:53:10.654Z,19.00
2019-05-11T05:54:10.558Z,19.90
2019-05-11T05:55:10.478Z,18.80
2019-05-11T05:56:10.390Z,19.30
2019-05-11T05:57:10.310Z,18.60
2019-05-11T05:58:10.236Z,19.20
2019-05-11T05:59:10.147Z,18.80
2019-05-11T06:00:10.055Z,19.60
2019-05-11T06:01:10.405Z,18.90
2019-05-11T06:02:09.891Z,19.10
2019-05-11T06:03:09.822Z,20.00
2019-05-11T06:04:09.720Z,19.30
2019-05-11T06:05:09.658Z,20.00
2019-05-11T06:06:09.563Z,20.50
2019-05-11T06:07:09.471Z,20.50
2019-05-11T06:08:09.401Z,19.90
2019-05-11T06:09:09.330Z,20.30
2019-05-11T06:10:09.227Z,19.80
2019-05-11T06:11:09.130Z,19.20
2019-05-11T06:12:09.061Z,19.70
2019-05-11T06:13:08.980Z,20.70
2019-05-11T06:14:08.907Z,20.60
2019-05-11T06:15:08.798Z,19.80
2019-05-11T06:16:08.720Z,20.40
2019-05-11T06:17:08.640Z,20.10
2019-05-11T06:18:08.565Z,19.90
2019-05-11T06:19:08.481Z,20.50
2019-05-11T06:20:09.031Z,19.20
2019-05-11T06:21:08.300Z,19.70
2019-05-11T06:22:08.224Z,19.50
2019-05-11T06:23:08.157Z,19.80
2019-05-11T06:24:08.525Z,19.90
2019-05-11T06:25:07.972Z,19.70
2019-05-11T06:26:07.907Z,19.60
2019-05-11T06:27:07.813Z,19.40
2019-05-11T06:28:07.737Z,18.10
2019-05-11T06:29:07.644Z,18.30
2019-05-11T06:30:07.561Z,17.90
2019-05-11T06:31:07.469Z,18.30
2019-05-11T06:32:07.392Z,17.70
2019-05-11T06:33:07.329Z,18.30
2019-05-11T06:34:07.227Z,18.30
2019-05-11T06:35:07.150Z,17.70
2019-05-11T06:36:07.055Z,18.60
2019-05-11T06:37:06.998Z,20.70
2019-05-11T06:38:06.902Z,20.70
2019-05-11T06:39:06.814Z,19.90
2019-05-11T06:40:06.724Z,20.00
2019-05-11T06:41:06.725Z,19.00
2019-05-11T06:42:06.575Z,18.00
2019-05-11T06:43:06.524Z,16.00
2019-05-11T06:44:06.397Z,16.20
2019-05-11T06:45:06.323Z,15.30
2019-05-11T06:46:06.230Z,16.50
2019-05-11T06:47:06.152Z,15.40
2019-05-11T06:48:06.187Z,15.70
2019-05-11T06:49:05.996Z,15.80
2019-05-11T06:50:05.935Z,16.00
2019-05-11T06:51:05.825Z,16.50
2019-05-11T06:52:05.742Z,16.70
2019-05-11T06:53:05.662Z,16.10
2019-05-11T06:54:05.584Z,17.10
2019-05-11T06:55:05.494Z,16.40
2019-05-11T06:56:05.406Z,18.40
2019-05-11T06:57:05.344Z,18.20
2019-05-11T06:58:05.254Z,17.60
2019-05-11T06:59:05.181Z,17.50
2019-05-11T07:00:05.072Z,18.30
2019-05-11T07:01:05.013Z,18.50
2019-05-11T07:02:04.913Z,18.10
2019-05-11T07:03:04.844Z,19.30
2019-05-11T07:04:04.778Z,19.30
2019-05-11T07:05:04.672Z,18.60
2019-05-11T07:06:04.582Z,18.00
2019-05-11T07:07:04.503Z,19.00
2019-05-11T07:08:04.423Z,19.40
2019-05-11T07:09:04.359Z,19.70
2019-05-11T07:10:04.257Z,19.30
2019-05-11T07:11:04.178Z,20.20
2019-05-11T07:12:04.201Z,20.20
2019-05-11T07:13:04.025Z,20.80
2019-05-11T07:14:19.128Z,21.00
2019-05-11T07:15:03.858Z,20.30
2019-05-11T07:16:03.766Z,20.40
2019-05-11T07:17:03.685Z,19.80
2019-05-11T07:18:03.611Z,20.80
2019-05-11T07:19:03.540Z,21.00
2019-05-11T07:20:03.449Z,22.40
2019-05-11T07:21:03.367Z,22.00
2019-05-11T07:22:03.271Z,20.80
2019-05-11T07:23:03.200Z,21.30
2019-05-11T07:24:03.129Z,21.40
2019-05-11T07:25:03.031Z,19.90
2019-05-11T07:26:02.943Z,20.00
2019-05-11T07:27:02.873Z,21.30
2019-05-11T07:28:02.868Z,21.60
2019-05-11T07:29:02.710Z,22.20
2019-05-11T07:30:02.621Z,21.20
2019-05-11T07:31:02.542Z,21.10
2019-05-11T07:32:10.144Z,20.70
2019-05-11T07:33:02.379Z,21.70
2019-05-11T07:34:02.303Z,21.60
2019-05-11T07:35:02.212Z,21.50
2019-05-11T07:36:02.126Z,21.70
2019-05-11T07:37:02.048Z,21.10
2019-05-11T07:38:01.965Z,21.70
2019-05-11T07:39:01.898Z,22.20
2019-05-11T07:40:01.803Z,21.70
2019-05-11T07:41:01.722Z,22.60
2019-05-11T07:42:01.630Z,23.80
2019-05-11T07:43:01.557Z,23.60
2019-05-11T07:44:01.481Z,24.00
2019-05-11T07:45:01.388Z,23.20
2019-05-11T07:46:01.302Z,24.80
2019-05-11T07:47:01.218Z,24.80
2019-05-11T07:48:01.157Z,26.40
2019-05-11T07:49:01.071Z,25.80
2019-05-11T07:50:00.981Z,24.50
2019-05-11T07:51:00.895Z,27.10
2019-05-11T07:52:00.807Z,27.30
2019-05-11T07:53:00.727Z,28.00
2019-05-11T07:54:00.667Z,28.60
2019-05-11T07:55:00.561Z,28.20
2019-05-11T07:56:00.477Z,28.40
2019-05-11T07:57:00.408Z,29.20
2019-05-11T07:58:00.316Z,30.30
2019-05-11T07:59:00.251Z,30.90
2019-05-11T08:00:00.156Z,32.20
2019-05-11T08:01:00.087Z,32.40
2019-05-11T08:01:59.985Z,32.90
2019-05-11T08:02:59.911Z,33.80
2019-05-11T08:03:59.840Z,34.40
2019-05-11T08:04:59.745Z,33.70
2019-05-11T08:06:02.645Z,35.50
2019-05-11T08:06:59.572Z,37.10
2019-05-11T08:07:59.704Z,37.30
2019-05-11T08:08:59.449Z,37.80
2019-05-11T08:09:59.333Z,39.30
2019-05-11T08:10:59.251Z,38.20
2019-05-11T08:11:59.177Z,38.90
2019-05-11T08:12:59.082Z,39.80
2019-05-11T08:13:59.007Z,40.00
2019-05-11T08:15:08.052Z,39.40
2019-05-11T08:15:58.841Z,40.60
2019-05-11T08:16:59.566Z,39.30
2019-05-11T08:17:58.669Z,40.50
2019-05-11T08:18:59.105Z,41.90
2019-05-11T08:19:58.520Z,42.00
2019-05-11T08:20:58.483Z,42.50
2019-05-11T08:21:58.471Z,43.10
2019-05-11T08:22:58.803Z,44.90
2019-05-11T08:23:58.854Z,45.10
2019-05-11T08:24:58.688Z,45.60
2019-05-11T08:25:58.238Z,47.00
2019-05-11T08:26:58.338Z,46.00
2019-05-11T08:27:58.831Z,47.80
2019-05-11T08:28:58.110Z,47.90
2019-05-11T08:29:58.046Z,49.10
2019-05-11T08:30:58.028Z,48.10
2019-05-11T08:31:58.044Z,49.50
2019-05-11T08:32:58.224Z,49.20
2019-05-11T08:33:58.260Z,49.80
2019-05-11T08:34:58.067Z,49.40
2019-05-11T08:35:58.273Z,49.30
2019-05-11T08:36:58.388Z,50.20
2019-05-11T08:37:58.218Z,49.70
2019-05-11T08:38:58.566Z,50.10
2019-05-11T08:39:58.499Z,49.90
2019-05-11T08:40:58.863Z,48.50
2019-05-11T08:41:58.796Z,49.80
2019-05-11T08:42:58.284Z,49.90
2019-05-11T08:43:58.503Z,48.90
2019-05-11T08:45:14.347Z,49.10
2019-05-11T08:45:57.844Z,50.50
2019-05-11T08:46:58.206Z,51.10
2019-05-11T08:47:57.955Z,52.50
2019-05-11T08:48:56.132Z,48.90
2019-05-11T08:49:56.050Z,47.70
2019-05-11T08:50:58.013Z,47.80
2019-05-11T08:51:57.872Z,47.40
2019-05-11T08:52:57.918Z,45.80
2019-05-11T08:53:58.112Z,45.40
2019-05-11T08:54:57.598Z,45.50
2019-05-11T08:55:55.549Z,45.70
2019-05-11T08:56:55.466Z,45.10
2019-05-11T08:57:55.389Z,45.80
2019-05-11T08:58:55.459Z,45.60
2019-05-11T08:59:57.666Z,44.90
2019-05-11T09:00:55.148Z,44.80
2019-05-11T09:01:55.055Z,44.80
2019-05-11T09:02:55.170Z,45.00
2019-05-11T09:03:54.892Z,44.80
2019-05-11T09:04:54.822Z,45.60
2019-05-11T09:05:54.776Z,46.20
2019-05-11T09:06:54.647Z,44.80
2019-05-11T09:07:54.588Z,46.70
2019-05-11T09:08:54.796Z,45.30
2019-05-11T09:09:54.415Z,45.90
2019-05-11T09:10:54.320Z,45.40
2019-05-11T09:11:54.409Z,44.70
2019-05-11T09:12:54.151Z,45.70
2019-05-11T09:13:54.216Z,43.60
2019-05-11T09:14:54.003Z,45.40
2019-05-11T09:15:54.025Z,43.70
2019-05-11T09:16:53.829Z,42.90
2019-05-11T09:17:53.750Z,44.50
2019-05-11T09:18:53.855Z,41.50
2019-05-11T09:19:53.601Z,42.10
2019-05-11T09:20:53.500Z,41.20
2019-05-11T09:21:53.450Z,41.40
2019-05-11T09:22:53.333Z,42.40
2019-05-11T09:23:53.251Z,39.80
2019-05-11T09:24:53.302Z,40.10
2019-05-11T09:25:53.097Z,40.40
2019-05-11T09:26:53.013Z,40.50
2019-05-11T09:27:53.081Z,40.90
2019-05-11T09:28:52.845Z,40.40
2019-05-11T09:29:52.921Z,40.70
2019-05-11T09:30:52.688Z,41.00
2019-05-11T09:31:52.601Z,40.40
2019-05-11T09:32:52.704Z,40.10
2019-05-11T09:33:52.450Z,39.20
2019-05-11T09:34:52.402Z,37.70
2019-05-11T09:35:53.523Z,38.30
2019-05-11T09:36:52.214Z,39.00
2019-05-11T09:37:52.120Z,38.10
2019-05-11T09:38:52.130Z,38.20
2019-05-11T09:39:51.956Z,38.60
2019-05-11T09:40:51.886Z,37.60
2019-05-11T09:41:51.946Z,38.80
2019-05-11T09:42:51.709Z,36.60
2019-05-11T09:43:51.628Z,36.50
2019-05-11T09:44:51.759Z,34.50
2019-05-11T09:45:52.142Z,33.10
2019-05-11T09:46:51.388Z,33.70
2019-05-11T09:47:51.369Z,31.90
2019-05-11T09:48:51.226Z,32.90
2019-05-11T09:49:51.288Z,32.20
2019-05-11T09:50:51.082Z,29.90
2019-05-11T09:51:50.993Z,30.30
2019-05-11T09:52:50.993Z,30.60
2019-05-11T09:53:50.829Z,28.60
2019-05-11T09:54:50.756Z,27.30
2019-05-11T09:55:50.708Z,28.70
2019-05-11T09:56:50.596Z,29.90
2019-05-11T09:57:50.618Z,30.10
2019-05-11T09:58:50.444Z,28.10
2019-05-11T09:59:50.425Z,26.90
2019-05-11T10:00:50.306Z,26.20
2019-05-11T10:01:50.234Z,26.60
2019-05-11T10:02:50.139Z,26.50
2019-05-11T10:03:50.249Z,26.60
2019-05-11T10:04:49.982Z,26.50
2019-05-11T10:05:50.001Z,26.10
2019-05-11T10:06:49.838Z,26.00
2019-05-11T10:07:49.861Z,25.60
2019-05-11T10:08:49.682Z,25.20
2019-05-11T10:09:49.615Z,25.50
2019-05-11T10:10:49.538Z,25.40
2019-05-11T10:11:49.449Z,25.30
2019-05-11T10:12:52.750Z,23.50
2019-05-11T10:13:49.298Z,21.60
2019-05-11T10:14:49.220Z,22.10
2019-05-11T10:16:03.781Z,22.80
2019-05-11T10:16:49.277Z,23.70
2019-05-11T10:17:48.994Z,22.50
2019-05-11T10:18:49.409Z,18.40
2019-05-11T10:19:49.731Z,21.40
2019-05-11T10:20:48.780Z,19.70
2019-05-11T10:21:48.843Z,20.80
2019-05-11T10:22:48.835Z,20.90
2019-05-11T10:23:48.858Z,22.40
2019-05-11T10:24:48.467Z,22.70
2019-05-11T10:25:48.488Z,23.10
2019-05-11T10:26:48.761Z,23.50
2019-05-11T10:27:48.939Z,23.90
2019-05-11T10:28:48.452Z,25.40
2019-05-11T10:29:48.557Z,24.10
2019-05-11T10:30:48.736Z,25.10
2019-05-11T10:31:48.176Z,26.40
2019-05-11T10:32:48.533Z,26.30
2019-05-11T10:33:48.981Z,26.00
2019-05-11T10:34:47.900Z,26.30
2019-05-11T10:35:48.321Z,25.00
2019-05-11T10:36:48.626Z,24.00
2019-05-11T10:37:47.883Z,25.20
2019-05-11T10:38:48.683Z,24.50
2019-05-11T10:39:48.809Z,24.10
2019-05-11T10:40:48.058Z,23.90
2019-05-11T10:41:47.955Z,22.90
2019-05-11T10:42:48.361Z,23.60
2019-05-11T10:43:48.979Z,23.90
2019-05-11T10:44:47.879Z,23.70
2019-05-11T10:45:48.400Z,21.50
2019-05-11T10:46:48.340Z,21.60
2019-05-11T10:47:48.738Z,21.90
2019-05-11T10:48:48.272Z,21.10
2019-05-11T10:49:48.481Z,18.60
2019-05-11T10:50:48.407Z,20.40
2019-05-11T10:51:48.475Z,19.10
2019-05-11T10:52:48.402Z,18.30
2019-05-11T10:53:51.076Z,19.10
2019-05-11T10:54:47.778Z,19.10
2019-05-11T10:55:47.968Z,20.30
2019-05-11T10:56:48.149Z,20.60
2019-05-11T10:57:45.919Z,20.70
2019-05-11T10:58:48.039Z,20.70
2019-05-11T10:59:45.766Z,19.40
2019-05-11T11:00:47.937Z,20.20
2019-05-11T11:01:45.609Z,20.30
2019-05-11T11:02:47.665Z,20.80
2019-05-11T11:03:45.473Z,22.10
2019-05-11T11:04:45.441Z,21.90
2019-05-11T11:05:45.318Z,22.40
2019-05-11T11:06:45.235Z,21.90
2019-05-11T11:07:45.153Z,21.70
2019-05-11T11:08:45.162Z,21.40
2019-05-11T11:09:44.997Z,21.10
2019-05-11T11:10:45.004Z,20.00
2019-05-11T11:11:44.839Z,18.60
2019-05-11T11:12:44.764Z,17.00
2019-05-11T11:13:44.787Z,17.50
2019-05-11T11:14:44.607Z,18.30
2019-05-11T11:15:44.541Z,17.20
2019-05-11T11:16:44.502Z,17.20
2019-05-11T11:17:44.386Z,16.20
2019-05-11T11:18:44.305Z,15.30
2019-05-11T11:19:44.316Z,14.50
2019-05-11T11:20:44.168Z,14.40
2019-05-11T11:21:44.094Z,14.00
2019-05-11T11:22:44.420Z,13.30
2019-05-11T11:23:43.936Z,13.40
2019-05-11T11:24:43.866Z,13.00
2019-05-11T11:25:47.970Z,11.70
2019-05-11T11:26:43.711Z,11.70
2019-05-11T11:27:43.633Z,11.60
2019-05-11T11:28:43.665Z,11.70
2019-05-11T11:29:43.487Z,11.80
2019-05-11T11:30:43.471Z,12.20
2019-05-11T11:31:43.343Z,12.30
2019-05-11T11:32:43.252Z,12.20
2019-05-11T11:33:43.286Z,12.60
2019-05-11T11:34:43.094Z,12.90
2019-05-11T11:35:43.049Z,14.00
2019-05-11T11:36:43.000Z,14.20
2019-05-11T11:37:42.864Z,14.80
2019-05-11T11:38:42.780Z,14.70
2019-05-11T11:39:42.817Z,14.50
2019-05-11T11:40:43.007Z,15.40
2019-05-11T11:41:42.554Z,15.20
2019-05-11T11:42:42.532Z,14.80
2019-05-11T11:43:42.385Z,15.70
2019-05-11T11:44:42.305Z,14.70
2019-05-11T11:45:42.250Z,14.80
2019-05-11T11:46:52.043Z,14.70
2019-05-11T11:47:42.072Z,14.70
2019-05-11T11:48:42.060Z,14.20
2019-05-11T11:49:41.909Z,14.90
2019-05-11T11:50:41.827Z,14.20
2019-05-11T11:51:41.807Z,14.30
2019-05-11T11:52:44.889Z,13.80
2019-05-11T11:53:41.596Z,14.40
2019-05-11T11:54:41.591Z,13.60
2019-05-11T11:55:41.490Z,13.20
2019-05-11T11:56:41.378Z,12.60
2019-05-11T11:57:41.305Z,12.80
2019-05-11T11:58:41.199Z,13.50
2019-05-11T11:59:41.125Z,12.70
2019-05-11T12:00:41.119Z,12.80
2019-05-11T12:01:40.986Z,11.60
2019-05-11T12:02:40.892Z,11.60
2019-05-11T12:03:40.835Z,12.60
2019-05-11T12:04:40.738Z,12.40
2019-05-11T12:05:40.744Z,12.50
2019-05-11T12:06:40.603Z,11.30
2019-05-11T12:07:40.507Z,12.50
2019-05-11T12:08:40.469Z,11.80
2019-05-11T12:09:40.350Z,11.80
2019-05-11T12:10:40.279Z,13.10
2019-05-11T12:11:40.304Z,12.40
2019-05-11T12:12:40.126Z,12.90
2019-05-11T12:13:40.041Z,12.90
2019-05-11T12:14:39.992Z,12.10
2019-05-11T12:15:39.891Z,12.30
2019-05-11T12:16:39.819Z,12.00
2019-05-11T12:17:39.728Z,12.30
2019-05-11T12:18:39.723Z,12.40
2019-05-11T12:19:39.573Z,11.60
2019-05-11T12:20:39.497Z,11.80
2019-05-11T12:21:39.444Z,11.00
2019-05-11T12:22:39.338Z,11.20
2019-05-11T12:23:39.340Z,9.70
2019-05-11T12:24:39.192Z,11.30
2019-05-11T12:25:40.664Z,11.00
2019-05-11T12:26:39.061Z,11.30
2019-05-11T12:27:38.959Z,11.80
2019-05-11T12:28:38.963Z,10.70
2019-05-11T12:29:38.792Z,10.30
2019-05-11T12:30:38.711Z,10.30
2019-05-11T12:31:38.700Z,11.50
2019-05-11T12:32:38.557Z,9.80
2019-05-11T12:33:38.670Z,9.70
2019-05-11T12:34:38.495Z,9.70
2019-05-11T12:35:38.331Z,9.80
2019-05-11T12:36:38.832Z,8.50
2019-05-11T12:37:38.201Z,8.40
2019-05-11T12:38:38.325Z,7.70
2019-05-11T12:39:38.619Z,7.00
2019-05-11T12:40:38.824Z,7.00
2019-05-11T12:41:39.920Z,6.90
2019-05-11T12:42:38.134Z,7.10
2019-05-11T12:43:38.161Z,6.70
2019-05-11T12:44:38.706Z,6.80
2019-05-11T12:45:37.758Z,6.80
2019-05-11T12:46:39.528Z,6.60
2019-05-11T12:47:38.565Z,6.90
2019-05-11T12:48:38.016Z,6.10
2019-05-11T12:49:39.041Z,6.40
2019-05-11T12:50:37.929Z,6.70
2019-05-11T12:51:38.325Z,6.30
2019-05-11T12:52:38.337Z,6.30